Terminal Aerodrome Forecast
Issued by NWS Memphis, TN

Home | Current Version | Previous Version | Text Only | Print | Product List | Glossary On
Versions: 1 2 3 4 5 6 7 8 9 10 11 12 13 14 15 16 17 18 19 20 21 22
000
FTUS44 KMEG 051120
TAFJBR
TAF
KJBR 051120Z 0512/0612 VRB02KT P6SM BKN030
      TEMPO 0512/0514 4SM BR
     FM051600 16004KT P6SM SCT030
     FM051900 19008KT P6SM VCTS BKN040CB BKN100
     FM060000 20004KT P6SM SCT040 SCT250
     FM060900 21003KT 4SM BR SCT100=

USA.gov is the U.S. government's official web portal to all federal, state and local government web resources and services.